createdAt,value
2022-08-25T00:01:57.458Z,18.67
2022-08-25T00:04:25.593Z,23.70
2022-08-25T00:07:24.271Z,43.35
2022-08-25T00:09:54.261Z,106.55
2022-08-25T00:12:21.538Z,45.67
2022-08-25T00:14:48.684Z,9.85
2022-08-25T00:17:15.964Z,10.45
2022-08-25T00:19:43.131Z,12.10
2022-08-25T00:22:10.338Z,8.68
2022-08-25T00:24:37.893Z,9.70
2022-08-25T00:27:07.261Z,17.13
2022-08-25T00:29:38.147Z,9.07
2022-08-25T00:32:27.158Z,8.90
2022-08-25T00:34:57.431Z,6.85
2022-08-25T00:37:24.695Z,5.82
2022-08-25T00:39:53.224Z,7.57
2022-08-25T00:42:21.097Z,15.45
2022-08-25T00:44:48.303Z,12.80
2022-08-25T00:47:16.429Z,11.82
2022-08-25T00:49:48.215Z,13.30
2022-08-25T00:52:20.779Z,10.07
2022-08-25T00:55:03.064Z,9.80
2022-08-25T00:57:57.674Z,10.10
2022-08-25T01:00:39.725Z,14.32
2022-08-25T01:03:07.937Z,12.18
2022-08-25T01:05:36.236Z,14.68
2022-08-25T01:08:06.678Z,11.70
2022-08-25T01:10:38.764Z,12.63
2022-08-25T01:13:16.475Z,9.90
2022-08-25T01:15:47.531Z,18.35
2022-08-25T01:18:15.781Z,15.23
2022-08-25T01:20:45.428Z,15.32
2022-08-25T01:23:12.508Z,21.05
2022-08-25T01:25:51.741Z,19.23
2022-08-25T01:28:20.602Z,17.65
2022-08-25T01:30:47.888Z,12.68
2022-08-25T01:33:17.323Z,19.25
2022-08-25T01:35:45.752Z,14.70
2022-08-25T01:38:13.148Z,17.20
2022-08-25T01:40:40.720Z,20.00
2022-08-25T01:43:13.225Z,20.60
2022-08-25T01:45:44.078Z,13.02
2022-08-25T01:48:11.947Z,9.52
2022-08-25T01:50:44.243Z,10.50
2022-08-25T01:53:29.692Z,10.90
2022-08-25T01:56:09.816Z,10.02
2022-08-25T01:58:41.669Z,22.63
2022-08-25T02:01:13.776Z,20.20
2022-08-25T02:03:45.556Z,17.60
2022-08-25T02:06:30.080Z,17.05
2022-08-25T02:09:01.172Z,17.73
2022-08-25T02:11:28.842Z,27.38
2022-08-25T02:13:56.426Z,20.85
2022-08-25T02:16:28.672Z,20.35
2022-08-25T02:18:56.918Z,16.67
2022-08-25T02:21:24.210Z,12.52
2022-08-25T02:23:51.463Z,16.45
2022-08-25T02:26:20.104Z,16.25
2022-08-25T02:28:48.299Z,11.82
2022-08-25T02:31:16.999Z,12.90
2022-08-25T02:33:44.520Z,20.40
2022-08-25T02:36:11.868Z,13.32
2022-08-25T02:38:40.280Z,17.52
2022-08-25T02:41:13.958Z,15.00
2022-08-25T02:43:49.601Z,13.63
2022-08-25T02:46:19.127Z,15.35
2022-08-25T02:48:47.512Z,16.80
2022-08-25T02:51:15.554Z,17.42
2022-08-25T02:53:46.172Z,17.02
2022-08-25T02:56:15.317Z,19.15
2022-08-25T02:58:43.302Z,21.65
2022-08-25T03:01:12.171Z,29.75
2022-08-25T03:03:40.873Z,20.00
2022-08-25T03:06:10.905Z,18.88
2022-08-25T03:08:39.897Z,14.75
2022-08-25T03:11:07.240Z,17.85
2022-08-25T03:13:34.437Z,17.35
2022-08-25T03:16:04.175Z,23.50
2022-08-25T03:18:31.873Z,17.67
2022-08-25T03:20:59.491Z,21.77
2022-08-25T03:23:26.804Z,20.05
2022-08-25T03:26:13.742Z,23.05
2022-08-25T03:28:41.854Z,20.60
2022-08-25T03:31:09.569Z,22.73
2022-08-25T03:33:38.515Z,19.17
2022-08-25T03:36:07.091Z,21.40
2022-08-25T03:38:34.669Z,18.65
2022-08-25T03:41:02.255Z,28.17
2022-08-25T03:43:29.492Z,27.23
2022-08-25T03:45:57.217Z,30.73
2022-08-25T03:48:25.739Z,21.77
2022-08-25T03:50:54.900Z,16.95
2022-08-25T03:53:22.397Z,23.85
2022-08-25T03:55:50.761Z,13.75
2022-08-25T03:58:18.264Z,18.63
2022-08-25T04:00:45.586Z,19.63
2022-08-25T04:03:12.788Z,16.70
2022-08-25T04:05:40.103Z,19.55
2022-08-25T04:08:08.141Z,17.55
2022-08-25T04:10:36.995Z,21.08
2022-08-25T04:13:08.797Z,18.75
2022-08-25T04:15:36.340Z,18.58
2022-08-25T04:18:04.167Z,20.58
2022-08-25T04:20:31.408Z,18.67
2022-08-25T04:23:01.381Z,15.50
2022-08-25T04:25:29.833Z,20.50
2022-08-25T04:27:57.823Z,18.63
2022-08-25T04:30:26.805Z,21.10
2022-08-25T04:32:53.994Z,18.00
2022-08-25T04:35:23.811Z,17.48
2022-08-25T04:37:51.033Z,18.13
2022-08-25T04:40:18.707Z,16.88
2022-08-25T04:42:50.920Z,13.40
2022-08-25T04:45:18.199Z,16.77
2022-08-25T04:47:45.333Z,13.98
2022-08-25T04:50:12.472Z,15.35
2022-08-25T04:52:39.905Z,17.58
2022-08-25T04:55:07.591Z,12.68
2022-08-25T04:57:34.948Z,11.70
2022-08-25T05:00:02.563Z,15.50
2022-08-25T05:02:31.269Z,18.92
2022-08-25T05:04:58.543Z,19.10
2022-08-25T05:07:25.762Z,16.65
2022-08-25T05:09:52.930Z,15.13
2022-08-25T05:12:21.038Z,16.48
2022-08-25T05:14:48.663Z,14.05
2022-08-25T05:17:19.263Z,18.58
2022-08-25T05:19:49.785Z,16.73
2022-08-25T05:22:24.372Z,16.63
2022-08-25T05:24:51.565Z,20.35
2022-08-25T05:27:18.825Z,14.23
2022-08-25T05:29:46.042Z,14.30
2022-08-25T05:32:13.227Z,17.45
2022-08-25T05:34:40.604Z,16.83
2022-08-25T05:37:11.662Z,17.35
2022-08-25T05:39:39.459Z,18.05
2022-08-25T05:42:07.630Z,19.50
2022-08-25T05:44:34.809Z,23.23
2022-08-25T05:47:02.035Z,20.38
2022-08-25T05:49:29.207Z,16.65
2022-08-25T05:51:56.528Z,12.82
2022-08-25T05:54:23.843Z,15.98
2022-08-25T05:56:51.379Z,17.67
2022-08-25T05:59:18.577Z,13.13
2022-08-25T06:02:04.351Z,13.45
2022-08-25T06:04:32.530Z,11.60
2022-08-25T06:07:00.014Z,17.23
2022-08-25T06:09:29.491Z,13.15
2022-08-25T06:11:56.695Z,16.52
2022-08-25T06:14:25.033Z,17.65
2022-08-25T06:16:53.186Z,12.02
2022-08-25T06:19:23.437Z,19.73
2022-08-25T06:21:57.765Z,12.63
2022-08-25T06:24:26.672Z,16.42
2022-08-25T06:26:54.709Z,16.52
2022-08-25T06:29:22.319Z,14.88
2022-08-25T06:31:50.200Z,11.82
2022-08-25T06:34:31.622Z,14.77
2022-08-25T06:37:01.527Z,13.25
2022-08-25T06:39:29.342Z,9.25
2022-08-25T06:41:56.923Z,11.90
2022-08-25T06:44:27.718Z,10.95
2022-08-25T06:46:55.543Z,11.27
2022-08-25T06:49:22.897Z,10.50
2022-08-25T06:51:50.724Z,12.20
2022-08-25T06:54:17.948Z,11.52
2022-08-25T06:56:45.251Z,15.07
2022-08-25T06:59:13.005Z,11.27
2022-08-25T07:01:40.417Z,12.60
2022-08-25T07:04:12.750Z,9.13
2022-08-25T07:06:40.731Z,15.63
2022-08-25T07:09:09.688Z,11.50
2022-08-25T07:11:37.046Z,11.10
2022-08-25T07:14:06.983Z,9.55
2022-08-25T07:16:35.823Z,9.10
2022-08-25T07:19:08.296Z,13.10
2022-08-25T07:21:39.213Z,13.73
2022-08-25T07:24:09.614Z,8.30
2022-08-25T07:26:38.803Z,10.05
2022-08-25T07:29:35.139Z,13.82
2022-08-25T07:32:09.616Z,14.35
2022-08-25T07:34:59.647Z,16.88
2022-08-25T07:37:50.082Z,16.48
2022-08-25T07:40:25.613Z,18.50
2022-08-25T07:42:55.505Z,17.88
2022-08-25T07:45:46.839Z,14.60
2022-08-25T07:48:21.936Z,17.52
2022-08-25T07:50:53.295Z,14.18
2022-08-25T07:53:20.964Z,14.82
2022-08-25T07:55:50.238Z,14.38
2022-08-25T07:58:28.640Z,15.80
2022-08-25T08:01:03.735Z,13.45
2022-08-25T08:03:51.075Z,13.43
2022-08-25T08:06:22.675Z,18.60
2022-08-25T08:08:54.605Z,17.65
2022-08-25T08:11:29.887Z,14.68
2022-08-25T08:13:58.482Z,17.58
2022-08-25T08:16:28.388Z,15.48
2022-08-25T08:18:56.407Z,10.32
2022-08-25T08:21:29.904Z,13.90
2022-08-25T08:23:59.167Z,15.85
2022-08-25T08:26:48.119Z,20.60
2022-08-25T08:29:20.370Z,10.77
2022-08-25T08:31:49.670Z,14.13
2022-08-25T08:34:17.329Z,15.43
2022-08-25T08:36:45.347Z,12.38
2022-08-25T08:39:12.768Z,17.73
2022-08-25T08:42:19.455Z,14.48
2022-08-25T08:44:46.616Z,17.73
2022-08-25T08:47:32.445Z,15.98
2022-08-25T08:50:11.565Z,14.25
2022-08-25T08:52:50.146Z,13.90
2022-08-25T08:55:29.298Z,15.77
2022-08-25T08:57:58.989Z,14.60
2022-08-25T09:00:28.039Z,13.38
2022-08-25T09:03:05.068Z,15.48
2022-08-25T09:05:46.857Z,10.13
2022-08-25T09:08:20.379Z,8.55
2022-08-25T09:11:11.814Z,9.80
2022-08-25T09:14:02.171Z,12.80
2022-08-25T09:16:56.155Z,11.52
2022-08-25T09:19:41.744Z,11.23
2022-08-25T09:22:36.208Z,10.50
2022-08-25T09:25:53.336Z,10.13
2022-08-25T09:28:38.001Z,10.20
2022-08-25T09:31:29.727Z,9.57
2022-08-25T09:34:09.673Z,8.95
2022-08-25T09:36:37.903Z,9.07
2022-08-25T09:39:07.440Z,8.60
2022-08-25T09:41:44.994Z,12.48
2022-08-25T09:44:27.191Z,11.00
2022-08-25T09:47:08.442Z,11.55
2022-08-25T09:49:39.214Z,10.15
2022-08-25T09:52:25.506Z,15.07
2022-08-25T09:54:57.938Z,10.18
2022-08-25T09:57:32.354Z,11.40
2022-08-25T10:00:17.154Z,11.38
2022-08-25T10:03:01.214Z,10.05
2022-08-25T10:05:36.767Z,8.70
2022-08-25T10:08:14.654Z,12.77
2022-08-25T10:10:55.558Z,14.48
2022-08-25T10:13:37.933Z,9.02
2022-08-25T10:16:24.502Z,10.02
2022-08-25T10:19:07.982Z,14.70
2022-08-25T10:21:37.249Z,11.40
2022-08-25T10:24:06.184Z,9.13
2022-08-25T10:26:55.208Z,17.15
2022-08-25T10:29:45.265Z,9.88
2022-08-25T10:32:31.054Z,11.40
2022-08-25T10:35:13.420Z,13.50
2022-08-25T10:38:29.418Z,12.07
2022-08-25T10:41:39.264Z,12.52
2022-08-25T10:44:39.686Z,9.80
2022-08-25T10:47:41.448Z,9.30
2022-08-25T10:50:49.267Z,11.13
2022-08-25T10:53:28.401Z,9.45
2022-08-25T10:55:55.594Z,9.93
2022-08-25T10:58:32.075Z,10.65
2022-08-25T11:01:10.960Z,8.38
2022-08-25T11:03:53.158Z,9.38
2022-08-25T11:09:09.903Z,10.13
2022-08-25T11:11:46.480Z,10.30
2022-08-25T11:14:24.077Z,7.45
2022-08-25T11:16:59.551Z,12.52
2022-08-25T11:19:35.491Z,12.27
2022-08-25T11:22:26.287Z,10.75
2022-08-25T11:24:58.648Z,14.52
2022-08-25T11:27:58.633Z,15.63
2022-08-25T11:30:27.257Z,12.63
2022-08-25T11:32:56.215Z,9.10
2022-08-25T11:35:37.323Z,22.30
2022-08-25T11:38:17.058Z,16.05
2022-08-25T11:41:02.738Z,10.85
2022-08-25T11:44:03.974Z,12.60
2022-08-25T11:47:15.921Z,14.15
2022-08-25T11:50:03.910Z,12.23
2022-08-25T11:52:34.774Z,11.60
2022-08-25T11:55:23.100Z,14.82
2022-08-25T11:58:12.017Z,11.90
2022-08-25T12:00:45.218Z,11.27
2022-08-25T12:03:41.671Z,12.82
2022-08-25T12:06:34.586Z,15.50
2022-08-25T12:09:03.279Z,8.60
2022-08-25T12:11:58.475Z,10.77
2022-08-25T12:14:28.087Z,13.63
2022-08-25T12:16:55.774Z,15.85
2022-08-25T12:19:35.821Z,10.07
2022-08-25T12:22:04.069Z,11.02
2022-08-25T12:24:48.206Z,9.52
2022-08-25T12:27:19.588Z,13.20
2022-08-25T12:29:53.735Z,15.17
2022-08-25T12:33:02.437Z,11.77
2022-08-25T12:35:37.460Z,8.35
2022-08-25T12:38:15.929Z,16.23
2022-08-25T12:40:43.190Z,10.25
2022-08-25T12:43:54.562Z,10.55
2022-08-25T12:46:28.149Z,10.02
2022-08-25T12:49:34.301Z,10.57
2022-08-25T12:52:16.101Z,11.90
2022-08-25T12:54:55.737Z,13.40
2022-08-25T12:57:44.900Z,9.23
2022-08-25T13:00:22.460Z,7.90
2022-08-25T13:03:01.776Z,8.68
2022-08-25T13:05:51.863Z,10.07
2022-08-25T13:08:52.930Z,12.98
2022-08-25T13:12:06.507Z,9.32
2022-08-25T13:14:45.170Z,11.70
2022-08-25T13:17:26.126Z,14.20
2022-08-25T13:20:12.925Z,13.57
2022-08-25T13:22:40.597Z,12.95
2022-08-25T13:25:16.094Z,10.70
2022-08-25T13:28:06.721Z,10.30
2022-08-25T13:30:39.985Z,12.45
2022-08-25T13:33:20.445Z,14.73
2022-08-25T13:36:12.218Z,10.75
2022-08-25T13:38:39.997Z,12.73
2022-08-25T13:41:09.409Z,10.98
2022-08-25T13:43:39.561Z,12.57
2022-08-25T13:46:08.786Z,9.85
2022-08-25T13:48:49.524Z,7.97
2022-08-25T13:51:23.196Z,14.73
2022-08-25T13:53:58.442Z,11.45
2022-08-25T13:56:39.928Z,13.30
2022-08-25T13:59:26.260Z,8.60
2022-08-25T14:01:55.855Z,10.15
2022-08-25T14:04:34.919Z,13.38
2022-08-25T14:07:19.325Z,8.20
2022-08-25T14:09:46.999Z,9.18
2022-08-25T14:12:39.066Z,15.02
2022-08-25T14:15:26.160Z,12.25
2022-08-25T14:18:30.358Z,15.90
2022-08-25T14:20:58.589Z,16.40
2022-08-25T14:23:30.838Z,10.32
2022-08-25T14:25:58.859Z,10.82
2022-08-25T14:28:32.183Z,11.27
2022-08-25T14:31:08.721Z,11.43
2022-08-25T14:33:42.940Z,11.40
2022-08-25T14:36:10.449Z,13.13
2022-08-25T14:38:41.160Z,12.40
2022-08-25T14:43:37.379Z,12.43
2022-08-25T14:46:16.685Z,16.83
2022-08-25T14:48:47.138Z,12.07
2022-08-25T14:51:17.227Z,15.35
2022-08-25T14:53:44.872Z,12.32
2022-08-25T14:56:12.350Z,13.70
2022-08-25T14:58:50.815Z,15.65
2022-08-25T15:01:29.168Z,13.35
2022-08-25T15:04:20.801Z,16.42
2022-08-25T15:06:53.832Z,12.27
2022-08-25T15:09:21.747Z,12.35
2022-08-25T15:11:52.850Z,14.90
2022-08-25T15:14:28.580Z,12.43
2022-08-25T15:17:01.672Z,13.35
2022-08-25T15:19:29.460Z,11.55
2022-08-25T15:21:57.715Z,14.77
2022-08-25T15:24:28.348Z,16.52
2022-08-25T15:27:01.334Z,12.07
2022-08-25T15:29:30.619Z,11.27
2022-08-25T15:32:00.391Z,15.38
2022-08-25T15:34:28.700Z,12.20
2022-08-25T15:37:00.410Z,18.05
2022-08-25T15:39:28.007Z,13.50
2022-08-25T15:41:57.232Z,11.13
2022-08-25T15:44:29.454Z,13.05
2022-08-25T15:46:58.994Z,11.82
2022-08-25T15:49:29.794Z,11.23
2022-08-25T15:51:59.010Z,14.93
2022-08-25T15:54:27.095Z,13.43
2022-08-25T15:56:56.614Z,17.58
2022-08-25T15:59:25.702Z,17.77
2022-08-25T16:01:55.844Z,21.67
2022-08-25T16:04:24.879Z,17.02
2022-08-25T16:09:23.608Z,16.73
2022-08-25T16:11:56.770Z,18.35
2022-08-25T16:14:27.553Z,19.42
2022-08-25T16:16:58.568Z,22.55
2022-08-25T16:19:28.484Z,22.42
2022-08-25T16:21:56.010Z,18.45
2022-08-25T16:24:24.758Z,14.80
2022-08-25T16:26:52.695Z,17.83
2022-08-25T16:29:23.063Z,22.70
2022-08-25T16:31:53.441Z,21.25
2022-08-25T16:36:52.947Z,20.40
2022-08-25T16:39:21.620Z,17.02
2022-08-25T16:41:52.802Z,25.17
2022-08-25T16:44:23.975Z,19.83
2022-08-25T16:46:56.814Z,23.33
2022-08-25T16:49:25.347Z,18.08
2022-08-25T16:51:57.522Z,21.95
2022-08-25T16:54:45.668Z,21.33
2022-08-25T16:57:13.195Z,25.17
2022-08-25T16:59:42.604Z,22.83
2022-08-25T17:02:11.687Z,15.48
2022-08-25T17:04:42.955Z,36.35
2022-08-25T17:07:13.131Z,39.75
2022-08-25T17:09:42.639Z,28.00
2022-08-25T17:12:11.531Z,27.67
2022-08-25T17:14:38.806Z,34.35
2022-08-25T17:17:08.850Z,40.08
2022-08-25T17:19:36.588Z,35.55
2022-08-25T17:22:07.226Z,33.40
2022-08-25T17:24:35.067Z,32.35
2022-08-25T17:27:02.692Z,27.48
2022-08-25T17:29:29.908Z,25.80
2022-08-25T17:31:59.286Z,28.33
2022-08-25T17:34:27.562Z,32.08
2022-08-25T17:36:55.510Z,30.67
2022-08-25T17:39:28.377Z,25.75
2022-08-25T17:41:55.695Z,35.75
2022-08-25T17:44:23.105Z,31.75
2022-08-25T17:46:51.612Z,31.40
2022-08-25T17:49:19.737Z,39.17
2022-08-25T17:51:47.447Z,46.20
2022-08-25T17:54:17.570Z,46.40
2022-08-25T17:56:47.463Z,29.35
2022-08-25T17:59:16.653Z,31.83
2022-08-25T18:01:45.371Z,29.10
2022-08-25T18:04:17.245Z,29.10
2022-08-25T18:06:48.679Z,28.27
2022-08-25T18:09:17.462Z,25.83
2022-08-25T18:11:45.962Z,20.27
2022-08-25T18:14:14.499Z,25.58
2022-08-25T18:16:42.150Z,21.63
2022-08-25T18:19:10.973Z,25.20
2022-08-25T18:21:38.946Z,17.17
2022-08-25T18:24:06.977Z,14.20
2022-08-25T18:26:34.618Z,15.27
2022-08-25T18:29:02.340Z,28.67
2022-08-25T18:31:29.664Z,17.38
2022-08-25T18:33:58.417Z,17.70
2022-08-25T18:36:27.639Z,14.38
2022-08-25T18:39:17.383Z,13.95
2022-08-25T18:41:45.092Z,24.90
2022-08-25T18:44:12.756Z,39.55
2022-08-25T18:46:43.558Z,33.40
2022-08-25T18:49:15.817Z,40.33
2022-08-25T18:51:45.148Z,37.63
2022-08-25T18:54:23.550Z,47.30
2022-08-25T18:56:54.795Z,44.97
2022-08-25T18:59:23.742Z,37.10
2022-08-25T19:01:56.948Z,37.35
2022-08-25T19:04:31.244Z,33.70
2022-08-25T19:07:05.409Z,28.92
2022-08-25T19:09:36.552Z,36.55
2022-08-25T19:12:07.216Z,37.92
2022-08-25T19:14:39.163Z,33.60
2022-08-25T19:17:06.438Z,39.33
2022-08-25T19:19:33.839Z,39.97
2022-08-25T19:22:01.012Z,39.80
2022-08-25T19:24:31.186Z,42.38
2022-08-25T19:27:02.354Z,32.63
2022-08-25T19:29:30.458Z,34.92
2022-08-25T19:32:01.233Z,30.88
2022-08-25T19:34:33.634Z,22.50
2022-08-25T19:39:33.175Z,32.60
2022-08-25T19:42:00.518Z,29.48
2022-08-25T19:44:31.023Z,26.13
2022-08-25T19:46:58.941Z,24.42
2022-08-25T19:49:31.731Z,30.73
2022-08-25T19:52:02.681Z,34.17
2022-08-25T19:54:34.736Z,35.17
2022-08-25T19:57:03.178Z,42.30
2022-08-25T19:59:40.599Z,49.15
2022-08-25T20:02:21.137Z,19.40
2022-08-25T20:04:52.351Z,17.55
2022-08-25T20:07:23.807Z,12.98
2022-08-25T20:09:53.158Z,15.25
2022-08-25T20:12:21.069Z,13.38
2022-08-25T20:14:49.495Z,20.45
2022-08-25T20:17:24.371Z,15.95
2022-08-25T20:19:56.175Z,18.17
2022-08-25T20:22:26.920Z,17.15
2022-08-25T20:25:17.600Z,16.85
2022-08-25T20:27:52.461Z,18.43
2022-08-25T20:30:23.715Z,20.63
2022-08-25T20:32:52.300Z,13.05
2022-08-25T20:35:26.719Z,16.23
2022-08-25T20:37:58.682Z,18.50
2022-08-25T20:40:28.425Z,14.70
2022-08-25T20:42:58.749Z,14.98
2022-08-25T20:45:26.394Z,13.35
2022-08-25T20:47:53.821Z,14.38
2022-08-25T20:50:22.976Z,16.30
2022-08-25T20:52:51.581Z,13.43
2022-08-25T20:55:19.235Z,13.77
2022-08-25T20:57:46.820Z,14.93
2022-08-25T21:00:15.485Z,12.35
2022-08-25T21:02:46.489Z,18.65
2022-08-25T21:05:42.375Z,17.20
2022-08-25T21:08:10.512Z,17.50
2022-08-25T21:10:38.287Z,11.63
2022-08-25T21:13:06.714Z,13.73
2022-08-25T21:15:34.155Z,12.55
2022-08-25T21:18:12.784Z,16.95
2022-08-25T21:20:51.034Z,13.07
2022-08-25T21:23:29.260Z,12.82
2022-08-25T21:26:12.695Z,15.52
2022-08-25T21:28:47.691Z,15.30
2022-08-25T21:31:31.805Z,19.92
2022-08-25T21:34:01.143Z,19.25
2022-08-25T21:36:32.141Z,17.65
2022-08-25T21:39:00.970Z,27.65
2022-08-25T21:41:32.995Z,24.42
2022-08-25T21:44:04.518Z,24.08
2022-08-25T21:46:33.764Z,26.75
2022-08-25T21:49:06.185Z,28.90
2022-08-25T21:51:43.556Z,25.10
2022-08-25T21:54:14.285Z,21.02
2022-08-25T21:56:43.019Z,24.10
2022-08-25T21:59:13.670Z,22.45
2022-08-25T22:01:41.988Z,21.42
2022-08-25T22:04:11.016Z,21.27
2022-08-25T22:06:39.135Z,24.20
2022-08-25T22:09:09.006Z,26.98
2022-08-25T22:11:36.403Z,28.52
2022-08-25T22:14:03.856Z,26.02
2022-08-25T22:16:33.385Z,22.42
2022-08-25T22:19:01.488Z,24.15
2022-08-25T22:21:29.200Z,24.70
2022-08-25T22:23:56.564Z,31.42
2022-08-25T22:26:27.380Z,33.35
2022-08-25T22:28:56.191Z,32.78
2022-08-25T22:31:24.533Z,36.13
2022-08-25T22:33:52.400Z,31.20
2022-08-25T22:36:24.630Z,33.25
2022-08-25T22:38:53.192Z,25.77
2022-08-25T22:41:24.198Z,32.42
2022-08-25T22:43:54.115Z,28.67
2022-08-25T22:46:25.512Z,26.25
2022-08-25T22:48:56.402Z,31.85
2022-08-25T22:51:27.130Z,29.33
2022-08-25T22:53:54.974Z,35.60
2022-08-25T22:56:36.708Z,41.15
2022-08-25T22:59:09.789Z,39.55
2022-08-25T23:01:37.813Z,36.03
2022-08-25T23:04:08.083Z,40.17
2022-08-25T23:06:35.583Z,46.97
2022-08-25T23:09:06.222Z,40.15
2022-08-25T23:11:33.610Z,36.72
2022-08-25T23:14:00.979Z,36.88
2022-08-25T23:16:29.125Z,32.22
2022-08-25T23:18:56.307Z,30.02
2022-08-25T23:21:42.450Z,38.60
2022-08-25T23:24:12.108Z,43.25
2022-08-25T23:26:42.507Z,34.83
2022-08-25T23:29:18.105Z,37.63
2022-08-25T23:31:48.057Z,28.25
2022-08-25T23:34:16.879Z,42.45
2022-08-25T23:36:44.804Z,38.70
2022-08-25T23:39:12.100Z,34.97
2022-08-25T23:41:41.701Z,39.28
2022-08-25T23:44:17.135Z,27.00
2022-08-25T23:46:47.066Z,31.55
2022-08-25T23:49:18.419Z,27.15
2022-08-25T23:51:48.845Z,29.80
2022-08-25T23:54:17.445Z,31.08
2022-08-25T23:56:51.653Z,31.50
2022-08-25T23:59:24.133Z,31.67
